createdAt,value
2019-05-18T00:04:55.637Z,39.72
2019-05-18T00:10:03.340Z,32.79
2019-05-18T00:15:11.017Z,32.39
2019-05-18T00:20:18.693Z,31.03
2019-05-18T00:25:26.291Z,31.93
2019-05-18T00:30:34.245Z,31.66
2019-05-18T00:35:41.842Z,31.74
2019-05-18T00:40:49.805Z,31.19
2019-05-18T00:45:57.405Z,31.54
2019-05-18T00:51:05.096Z,39.17
2019-05-18T00:56:12.688Z,32.08
2019-05-18T01:01:20.294Z,30.75
2019-05-18T01:06:27.916Z,32.27
2019-05-18T01:11:35.512Z,32.79
2019-05-18T01:16:43.201Z,31.73
2019-05-18T01:21:51.166Z,38.71
2019-05-18T01:26:58.781Z,32.44
2019-05-18T01:32:06.369Z,31.28
2019-05-18T01:37:13.989Z,31.18
2019-05-18T01:42:21.597Z,32.78
2019-05-18T01:47:29.197Z,31.93
2019-05-18T01:52:37.309Z,33.40
2019-05-18T01:57:44.921Z,40.05
2019-05-18T02:02:52.637Z,33.17
2019-05-18T02:08:00.233Z,39.74
2019-05-18T02:13:07.885Z,33.06
2019-05-18T02:18:28.315Z,32.87
2019-05-18T02:23:22.933Z,32.71
2019-05-18T02:28:30.541Z,32.90
2019-05-18T02:33:38.327Z,33.66
2019-05-18T02:38:45.914Z,33.17
2019-05-18T02:43:53.961Z,32.68
2019-05-18T02:49:01.603Z,33.51
2019-05-18T02:54:09.470Z,34.41
2019-05-18T02:59:17.092Z,33.24
2019-05-18T03:04:24.830Z,33.48
2019-05-18T03:09:32.439Z,32.65
2019-05-18T03:14:40.038Z,41.86
2019-05-18T03:19:47.694Z,42.67
2019-05-18T03:24:55.281Z,33.70
2019-05-18T03:30:02.915Z,33.95
2019-05-18T03:35:10.731Z,33.88
2019-05-18T03:40:18.388Z,40.14
2019-05-18T03:45:25.977Z,32.05
2019-05-18T03:50:33.578Z,31.72
2019-05-18T03:55:41.376Z,31.65
2019-05-18T04:00:49.085Z,32.41
2019-05-18T04:05:56.678Z,38.62
2019-05-18T04:11:04.293Z,31.59
2019-05-18T04:16:11.880Z,39.12
2019-05-18T04:21:19.478Z,33.38
2019-05-18T04:26:27.077Z,41.77
2019-05-18T04:31:34.684Z,34.33
2019-05-18T04:36:42.289Z,33.58
2019-05-18T04:41:49.945Z,33.36
2019-05-18T04:46:57.544Z,35.07
2019-05-18T04:52:05.426Z,34.66
2019-05-18T04:57:13.021Z,42.42
2019-05-18T05:02:20.647Z,34.81
2019-05-18T05:07:28.239Z,36.55
2019-05-18T05:12:35.874Z,37.29
2019-05-18T05:17:43.461Z,47.07
2019-05-18T05:22:51.122Z,37.98
2019-05-18T05:27:58.733Z,41.08
2019-05-18T05:33:06.359Z,43.39
2019-05-18T05:38:13.953Z,43.55
2019-05-18T05:43:21.722Z,44.74
2019-05-18T05:48:29.333Z,45.14
2019-05-18T05:53:36.941Z,46.18
2019-05-18T05:58:44.574Z,44.23
2019-05-18T06:03:52.162Z,43.76
2019-05-18T06:09:00.049Z,42.94
2019-05-18T06:14:07.642Z,49.39
2019-05-18T06:19:15.489Z,41.43
2019-05-18T06:24:23.104Z,41.79
2019-05-18T06:29:30.796Z,39.95
2019-05-18T06:34:38.399Z,49.02
2019-05-18T06:39:46.125Z,41.61
2019-05-18T06:44:55.581Z,48.76
2019-05-18T06:50:03.199Z,47.11
2019-05-18T06:55:10.873Z,48.08
2019-05-18T07:00:18.465Z,39.30
2019-05-18T07:05:26.118Z,39.83
2019-05-18T07:10:33.717Z,40.28
2019-05-18T07:15:41.324Z,39.51
2019-05-18T07:20:48.926Z,40.41
2019-05-18T07:25:56.741Z,38.49
2019-05-18T07:31:04.415Z,38.68
2019-05-18T07:36:12.011Z,46.96
2019-05-18T07:41:19.609Z,42.17
2019-05-18T07:46:27.348Z,39.25
2019-05-18T07:51:37.137Z,41.02
2019-05-18T07:56:41.993Z,38.67
2019-05-18T08:01:49.638Z,39.77
2019-05-18T08:06:57.247Z,41.08
2019-05-18T08:12:04.844Z,41.83
2019-05-18T08:17:13.244Z,40.60
2019-05-18T08:22:20.851Z,45.38
2019-05-18T08:27:28.869Z,38.82
2019-05-18T08:32:36.511Z,39.67
2019-05-18T08:37:44.156Z,45.11
2019-05-18T08:42:52.353Z,39.85
2019-05-18T08:48:00.071Z,38.99
2019-05-18T08:53:08.375Z,38.19
2019-05-18T08:58:15.051Z,38.02
2019-05-18T09:03:22.665Z,37.80
2019-05-18T09:08:30.397Z,39.07
2019-05-18T09:13:37.943Z,39.39
2019-05-18T09:18:45.558Z,40.27
2019-05-18T09:23:53.146Z,37.51
2019-05-18T09:29:00.824Z,41.26
2019-05-18T09:34:08.432Z,36.64
2019-05-18T09:39:16.046Z,33.94
2019-05-18T09:44:23.698Z,35.39
2019-05-18T09:49:31.320Z,40.90
2019-05-18T09:54:39.006Z,40.52
2019-05-18T09:59:46.617Z,36.81
2019-05-18T10:04:54.290Z,33.68
2019-05-18T10:10:02.209Z,31.97
2019-05-18T10:15:09.803Z,32.31
2019-05-18T10:20:17.753Z,31.56
2019-05-18T10:25:25.462Z,31.74
2019-05-18T10:30:33.088Z,31.27
2019-05-18T10:35:40.758Z,27.62
2019-05-18T10:40:48.355Z,31.88
2019-05-18T10:45:56.303Z,24.27
2019-05-18T10:51:05.606Z,22.26
2019-05-18T10:56:11.122Z,22.93
2019-05-18T11:01:18.728Z,21.09
2019-05-18T11:06:26.415Z,22.58
2019-05-18T11:11:34.013Z,18.82
2019-05-18T11:16:41.650Z,24.26
2019-05-18T11:21:49.240Z,26.27
2019-05-18T11:26:56.854Z,21.73
2019-05-18T11:32:04.483Z,21.85
2019-05-18T11:37:12.078Z,20.87
2019-05-18T11:42:19.735Z,19.08
2019-05-18T11:47:27.348Z,27.41
2019-05-18T11:52:34.997Z,26.87
2019-05-18T11:57:42.945Z,21.71
2019-05-18T12:02:50.567Z,21.90
2019-05-18T12:07:58.144Z,21.35
2019-05-18T12:13:05.809Z,21.02
2019-05-18T12:18:13.446Z,22.85
2019-05-18T12:23:21.013Z,22.71
2019-05-18T12:28:31.402Z,22.09
2019-05-18T12:33:35.753Z,20.47
2019-05-18T12:38:43.361Z,18.83
2019-05-18T12:43:50.972Z,21.50
2019-05-18T12:48:58.638Z,16.57
2019-05-18T12:54:06.229Z,15.77
2019-05-18T12:59:13.670Z,16.87
2019-05-18T13:04:21.265Z,16.74
2019-05-18T13:09:28.917Z,15.46
2019-05-18T13:14:36.500Z,15.27
2019-05-18T13:19:44.253Z,15.89
2019-05-18T13:24:52.376Z,17.74
2019-05-18T13:29:59.038Z,15.72
2019-05-18T13:35:06.660Z,17.27
2019-05-18T13:40:14.305Z,16.46
2019-05-18T13:45:21.926Z,16.66
2019-05-18T13:50:29.540Z,19.97
2019-05-18T13:55:37.156Z,18.58
2019-05-18T14:00:44.754Z,21.33
2019-05-18T14:05:52.528Z,21.06
2019-05-18T14:11:00.137Z,19.53
2019-05-18T14:16:07.797Z,20.23
2019-05-18T14:21:15.389Z,19.62
2019-05-18T14:26:23.079Z,16.70
2019-05-18T14:31:30.881Z,21.23
2019-05-18T14:36:38.512Z,20.36
2019-05-18T14:41:46.114Z,20.57
2019-05-18T14:46:53.805Z,21.47
2019-05-18T14:52:01.418Z,17.00
2019-05-18T14:57:09.034Z,16.05
2019-05-18T15:02:16.657Z,19.69
2019-05-18T15:07:24.257Z,20.45
2019-05-18T15:12:31.895Z,18.15
2019-05-18T15:17:39.488Z,20.33
2019-05-18T15:22:47.124Z,18.86
2019-05-18T15:27:54.714Z,18.20
2019-05-18T15:33:02.157Z,17.90
2019-05-18T15:38:09.784Z,17.75
2019-05-18T15:43:17.422Z,18.71
2019-05-18T15:48:25.189Z,20.24
2019-05-18T15:53:32.769Z,17.76
2019-05-18T15:58:40.653Z,20.00
2019-05-18T16:03:48.292Z,19.16
2019-05-18T16:08:55.886Z,16.91
2019-05-18T16:14:03.544Z,18.13
2019-05-18T16:19:11.137Z,16.33
2019-05-18T16:24:18.751Z,18.31
2019-05-18T16:29:26.378Z,17.87
2019-05-18T16:34:34.014Z,18.43
2019-05-18T16:39:41.626Z,18.18
2019-05-18T16:44:49.290Z,16.09
2019-05-18T16:49:56.878Z,15.74
2019-05-18T16:55:04.525Z,15.42
2019-05-18T17:00:15.718Z,16.06
2019-05-18T17:05:19.305Z,16.16
2019-05-18T17:10:26.907Z,15.75
2019-05-18T17:15:34.608Z,16.75
2019-05-18T17:20:42.205Z,14.49
2019-05-18T17:25:49.820Z,14.31
2019-05-18T17:30:57.433Z,12.32
2019-05-18T17:36:05.034Z,14.31
2019-05-18T17:41:12.723Z,12.26
2019-05-18T17:46:20.309Z,11.83
2019-05-18T17:51:27.986Z,13.01
2019-05-18T17:56:35.660Z,13.50
2019-05-18T18:01:43.270Z,13.49
2019-05-18T18:06:50.869Z,15.78
2019-05-18T18:11:58.545Z,14.70
2019-05-18T18:17:06.138Z,16.80
2019-05-18T18:22:13.817Z,18.19
2019-05-18T18:27:25.254Z,19.48
2019-05-18T18:32:28.623Z,18.55
2019-05-18T18:37:36.213Z,20.83
2019-05-18T18:42:43.942Z,20.17
2019-05-18T18:47:51.592Z,21.73
2019-05-18T18:52:59.193Z,19.95
2019-05-18T18:58:06.809Z,19.26
2019-05-18T19:03:14.430Z,19.68
2019-05-18T19:08:22.048Z,22.05
2019-05-18T19:13:29.636Z,20.82
2019-05-18T19:18:37.241Z,21.88
2019-05-18T19:23:44.821Z,21.18
2019-05-18T19:28:52.501Z,19.99
2019-05-18T19:34:00.101Z,19.73
2019-05-18T19:39:08.721Z,20.01
2019-05-18T19:44:16.336Z,20.49
2019-05-18T19:49:23.985Z,20.38
2019-05-18T19:54:31.576Z,21.69
2019-05-18T19:59:39.213Z,21.37
2019-05-18T20:05:05.587Z,23.30
2019-05-18T20:09:54.296Z,25.19
2019-05-18T20:15:01.915Z,27.67
2019-05-18T20:20:09.527Z,24.72
2019-05-18T20:25:17.475Z,29.03
2019-05-18T20:30:25.129Z,30.00
2019-05-18T20:35:32.729Z,31.02
2019-05-18T20:40:40.645Z,31.17
2019-05-18T20:45:48.236Z,31.67
2019-05-18T20:50:55.922Z,34.69
2019-05-18T20:56:03.530Z,40.40
2019-05-18T21:01:11.138Z,37.44
2019-05-18T21:06:18.738Z,38.56
2019-05-18T21:11:26.353Z,38.50
2019-05-18T21:16:33.953Z,38.74
2019-05-18T21:21:41.589Z,39.40
2019-05-18T21:26:49.185Z,40.08
2019-05-18T21:31:56.780Z,42.40
2019-05-18T21:37:04.541Z,43.61
2019-05-18T21:42:12.201Z,42.95
2019-05-18T21:47:19.889Z,44.23
2019-05-18T21:52:27.492Z,51.40
2019-05-18T21:57:35.164Z,51.63
2019-05-18T22:02:42.769Z,45.80
2019-05-18T22:07:50.597Z,48.08
2019-05-18T22:12:58.293Z,48.87
2019-05-18T22:18:05.886Z,48.68
2019-05-18T22:23:13.489Z,49.25
2019-05-18T22:28:21.337Z,52.01
2019-05-18T22:33:29.009Z,51.38
2019-05-18T22:38:36.609Z,53.21
2019-05-18T22:43:44.385Z,52.36
2019-05-18T22:48:52.004Z,52.87
2019-05-18T22:53:59.657Z,53.73
2019-05-18T22:59:07.261Z,54.40
2019-05-18T23:04:15.324Z,54.89
2019-05-18T23:09:22.909Z,54.39
2019-05-18T23:14:30.834Z,55.18
2019-05-18T23:19:38.482Z,56.33
2019-05-18T23:24:46.085Z,65.54
2019-05-18T23:29:53.821Z,65.19
2019-05-18T23:35:01.480Z,56.50
2019-05-18T23:40:09.485Z,57.15
2019-05-18T23:45:17.122Z,57.32
2019-05-18T23:50:24.725Z,59.61
2019-05-18T23:55:32.324Z,60.63
